Time;durP1;ratioP1;P1;durP2;ratioP2;P2;SDS_P1;SDS_P2;PMS_P1;PMS_P2;Temp;Humidity;BMP_temperature;BMP_pressure;BME280_temperature;BME280_humidity;BME280_pressure;Samples;Min_cycle;Max_cycle;Signal;HPM_P1;HPM_P2
2022/11/15 00:00:03;;;;;;;5.43;4.05;;;;;;;18.87;49.35;100811.00;5066662;28;20028;-60
2022/11/15 00:02:28;;;;;;;5.82;3.67;;;;;;;18.87;49.36;100805.59;5084731;28;20064;-60
2022/11/15 00:04:54;;;;;;;4.78;3.67;;;;;;;18.78;49.65;100794.00;5084721;28;20025;-60
2022/11/15 00:07:19;;;;;;;4.78;3.80;;;;;;;18.85;49.39;100813.00;5084331;28;20503;-60
2022/11/15 00:09:44;;;;;;;5.15;3.97;;;;;;;18.85;49.52;100800.38;5084899;28;20774;-60
2022/11/15 00:12:10;;;;;;;4.00;3.47;;;;;;;18.84;49.75;100796.00;5084926;28;20121;-60
2022/11/15 00:14:35;;;;;;;4.35;3.83;;;;;;;18.83;49.33;100799.72;5083887;28;20032;-59
2022/11/15 00:17:00;;;;;;;5.38;4.10;;;;;;;18.83;49.63;100796.19;5084358;28;20021;-58
2022/11/15 00:19:25;;;;;;;4.63;3.97;;;;;;;18.81;49.47;100796.34;5084372;28;20485;-60
2022/11/15 00:21:51;;;;;;;4.07;3.67;;;;;;;18.83;49.19;100798.88;5084688;28;20056;-60
2022/11/15 00:24:16;;;;;;;4.07;3.38;;;;;;;18.82;49.47;100799.88;5083680;28;20114;-60
2022/11/15 00:26:41;;;;;;;5.32;3.95;;;;;;;18.80;49.40;100816.22;5084693;28;20029;-60
2022/11/15 00:29:06;;;;;;;4.50;3.55;;;;;;;18.80;49.67;100800.06;5083488;28;20088;-60
2022/11/15 00:31:32;;;;;;;5.13;3.85;;;;;;;18.80;49.18;100794.66;5084346;28;20627;-58
2022/11/15 00:33:57;;;;;;;4.63;3.80;;;;;;;18.79;49.86;100797.53;5083791;28;20040;-60
2022/11/15 00:36:22;;;;;;;4.63;3.85;;;;;;;18.74;49.32;100779.19;5084287;28;20039;-59
2022/11/15 00:38:47;;;;;;;4.47;3.60;;;;;;;18.78;49.78;100785.94;5083683;28;20112;-60
2022/11/15 00:41:13;;;;;;;4.28;3.63;;;;;;;18.75;49.52;100777.34;5084361;28;20033;-60
2022/11/15 00:43:39;;;;;;;4.93;3.72;;;;;;;18.60;49.35;100756.44;5083117;28;20035;-60
2022/11/15 00:46:05;;;;;;;4.20;3.50;;;;;;;18.76;49.51;100779.84;5084041;28;20017;-59
2022/11/15 00:48:31;;;;;;;4.35;3.83;;;;;;;18.76;49.37;100769.09;5083970;28;20025;-59
2022/11/15 00:50:57;;;;;;;4.80;3.63;;;;;;;18.75;49.31;100767.41;5084198;28;20072;-60
2022/11/15 00:53:22;;;;;;;4.85;3.53;;;;;;;18.76;49.44;100760.16;5083105;28;20055;-59
2022/11/15 00:55:47;;;;;;;4.15;3.45;;;;;;;18.75;49.45;100769.25;5084105;28;20028;-59
2022/11/15 00:58:12;;;;;;;4.60;4.05;;;;;;;18.74;49.52;100757.66;5082371;28;20656;-59
2022/11/15 01:00:38;;;;;;;3.97;3.47;;;;;;;18.51;49.32;100727.00;5084084;28;20169;-60
2022/11/15 01:03:03;;;;;;;4.20;3.65;;;;;;;18.73;49.58;100764.03;5083547;28;20028;-59
2022/11/15 01:05:28;;;;;;;4.72;3.65;;;;;;;18.70;49.38;100757.16;5083656;28;20038;-57
2022/11/15 01:07:55;;;;;;;4.13;3.60;;;;;;;18.71;49.33;100764.22;5065320;28;20084;-60
2022/11/15 01:10:20;;;;;;;4.10;3.25;;;;;;;18.71;49.65;100761.50;5084047;28;20059;-60
2022/11/15 01:12:46;;;;;;;4.35;3.53;;;;;;;18.66;49.42;100752.25;5065343;28;20037;-59
2022/11/15 01:15:11;;;;;;;4.47;3.42;;;;;;;18.69;49.62;100760.88;5083335;28;20054;-60
2022/11/15 01:17:36;;;;;;;4.90;3.60;;;;;;;18.69;49.40;100763.56;5083248;28;20029;-59
2022/11/15 01:20:02;;;;;;;3.95;3.28;;;;;;;18.69;49.71;100759.97;5087962;28;20594;-59
2022/11/15 01:22:28;;;;;;;5.28;4.07;;;;;;;18.67;49.30;100757.44;5099377;28;20033;-60
2022/11/15 01:24:53;;;;;;;5.25;3.50;;;;;;;18.68;49.50;100753.75;5083352;28;20032;-59
2022/11/15 01:27:18;;;;;;;4.22;3.78;;;;;;;18.43;49.24;100722.47;5083333;28;20073;-59
2022/11/15 01:29:43;;;;;;;4.20;3.05;;;;;;;18.67;49.48;100749.38;5082971;28;20024;-60
2022/11/15 01:32:09;;;;;;;4.88;3.80;;;;;;;18.62;49.85;100746.34;5083481;28;20092;-59
2022/11/15 01:34:34;;;;;;;3.92;3.53;;;;;;;18.65;49.63;100743.34;5083472;28;20400;-60
2022/11/15 01:36:59;;;;;;;5.38;3.90;;;;;;;18.65;49.75;100750.56;5083094;28;20035;-59
2022/11/15 01:39:25;;;;;;;3.97;3.58;;;;;;;18.65;49.67;100745.19;5083202;28;20035;-60
2022/11/15 01:41:50;;;;;;;4.10;3.28;;;;;;;18.65;49.42;100740.63;5083289;28;20028;-60
2022/11/15 01:44:34;;;;;;;4.00;3.20;;;;;;;18.64;49.35;100738.09;5082674;28;20048;-60
2022/11/15 01:47:02;;;;;;;4.40;3.50;;;;;;;18.61;49.65;100736.59;5082914;28;20028;-58
2022/11/15 01:49:30;;;;;;;5.00;3.67;;;;;;;18.63;49.66;100737.25;5065182;28;20116;-59
2022/11/15 01:51:56;;;;;;;4.90;3.70;;;;;;;18.62;49.70;100727.50;5064822;28;20025;-59
2022/11/15 01:54:23;;;;;;;4.00;3.28;;;;;;;18.62;49.38;100723.97;5083003;28;20040;-60
2022/11/15 01:56:52;;;;;;;5.95;4.13;;;;;;;18.61;49.66;100720.44;5083162;28;20028;-59
2022/11/15 01:59:18;;;;;;;4.45;3.58;;;;;;;18.54;49.43;100715.91;5064627;28;20025;-60
2022/11/15 02:01:43;;;;;;;4.57;3.53;;;;;;;18.60;49.73;100723.28;5065008;28;20083;-60
2022/11/15 02:04:12;;;;;;;3.60;3.20;;;;;;;18.60;49.73;100724.13;5082900;28;20027;-59
2022/11/15 02:06:40;;;;;;;4.00;3.42;;;;;;;18.60;49.47;100728.69;5061505;28;20044;-59
2022/11/15 02:09:05;;;;;;;5.05;3.80;;;;;;;18.60;49.52;100720.59;5044608;28;20033;-60
2022/11/15 02:11:31;;;;;;;5.05;3.47;;;;;;;18.59;49.65;100727.84;5066898;28;20035;-59
2022/11/15 02:13:57;;;;;;;4.90;3.50;;;;;;;18.59;49.49;100721.63;5088197;28;20032;-58
2022/11/15 02:16:49;;;;;;;4.43;3.63;;;;;;;18.58;49.55;100722.63;5107313;28;20043;-59
2022/11/15 02:19:33;;;;;;;4.93;3.63;;;;;;;18.57;49.75;100720.97;5088746;28;20118;-59
2022/11/15 02:21:58;;;;;;;3.97;3.40;;;;;;;18.58;49.55;100719.94;5105014;28;20043;-59
2022/11/15 02:24:43;;;;;;;5.13;3.42;;;;;;;18.57;49.62;100719.09;5086646;28;20021;-59
2022/11/15 02:27:16;;;;;;;5.07;3.42;;;;;;;18.56;49.54;100713.88;5086664;28;20508;-59
2022/11/15 02:29:56;;;;;;;4.05;3.30;;;;;;;18.55;49.44;100714.91;5086432;28;20115;-59
2022/11/15 02:32:44;;;;;;;3.65;3.35;;;;;;;18.55;49.63;100712.19;5086664;28;20025;-59
2022/11/15 02:35:35;;;;;;;3.92;3.50;;;;;;;18.55;49.71;100718.41;5068617;28;20016;-60
2022/11/15 02:38:12;;;;;;;4.00;3.50;;;;;;;18.54;49.65;100711.38;5054805;28;20036;-59
2022/11/15 02:40:52;;;;;;;4.07;3.33;;;;;;;18.54;49.49;100699.75;5086692;28;20028;-59
2022/11/15 02:46:17;;;;;;;4.35;3.38;;;;;;;18.52;49.55;100705.31;5071080;28;20035;-59
2022/11/15 02:48:43;;;;;;;4.43;3.42;;;;;;;18.41;49.46;100681.44;5086155;28;20370;-59
2022/11/15 02:51:09;;;;;;;4.07;3.63;;;;;;;18.52;49.52;100693.69;5086018;28;20040;-59
2022/11/15 02:53:34;;;;;;;3.78;3.38;;;;;;;18.49;49.45;100693.03;5085798;28;20072;-59
2022/11/15 02:55:59;;;;;;;4.70;3.03;;;;;;;18.50;49.69;100688.47;5086200;28;20090;-59
2022/11/15 02:59:00;;;;;;;4.00;3.25;;;;;;;18.50;49.45;100680.41;5085263;28;20028;-58
2022/11/15 03:01:55;;;;;;;4.25;3.50;;;;;;;18.50;49.76;100675.03;5068511;28;20029;-60
2022/11/15 03:04:30;;;;;;;3.75;3.10;;;;;;;18.51;49.67;100675.84;5078064;28;20037;-60
2022/11/15 03:07:16;;;;;;;4.25;3.45;;;;;;;18.47;49.50;100673.50;5085597;28;20056;-58
2022/11/15 03:10:17;;;;;;;4.03;3.33;;;;;;;18.48;49.72;100677.91;5068164;28;20016;-59
2022/11/15 03:12:51;;;;;;;4.28;3.10;;;;;;;18.47;49.54;100668.13;5065624;28;20036;-59
2022/11/15 03:15:30;;;;;;;3.97;3.58;;;;;;;18.47;49.49;100665.44;5105328;28;20023;-57
2022/11/15 03:17:59;;;;;;;3.80;3.22;;;;;;;18.46;49.57;100655.69;5087877;28;20107;-59
2022/11/15 03:20:27;;;;;;;4.10;3.20;;;;;;;18.43;49.48;100655.16;5096111;28;20046;-59
2022/11/15 03:22:53;;;;;;;3.95;3.20;;;;;;;18.45;49.51;100662.06;5085608;28;20033;-59
2022/11/15 03:25:21;;;;;;;4.15;3.00;;;;;;;18.45;49.59;100656.69;5050703;28;20024;-59
2022/11/15 03:27:50;;;;;;;4.00;3.60;;;;;;;18.40;49.70;100640.22;5067214;28;20039;-59
2022/11/15 03:30:16;;;;;;;3.97;3.30;;;;;;;18.43;49.74;100653.31;5067319;28;20016;-60
2022/11/15 03:32:46;;;;;;;3.85;3.40;;;;;;;18.44;49.49;100649.63;5067607;28;20103;-59
2022/11/15 03:35:15;;;;;;;;;;;;;;;18.45;49.49;100648.63;5085871;28;20033;-60
2022/11/15 03:37:45;;;;;;;3.92;3.15;;;;;;;18.44;49.44;100649.63;5085185;28;19968;-60
2022/11/15 03:40:11;;;;;;;4.20;3.42;;;;;;;18.43;49.78;100641.72;5067734;28;20023;-60
2022/11/15 03:42:55;;;;;;;3.63;3.30;;;;;;;18.42;49.62;100645.44;5085291;28;20024;-60
2022/11/15 03:45:27;;;;;;;3.80;3.30;;;;;;;18.32;49.70;100629.47;5066745;28;20035;-59
2022/11/15 03:47:58;;;;;;;3.47;3.15;;;;;;;18.35;49.68;100642.59;5066990;28;20017;-60
2022/11/15 03:50:24;;;;;;;4.15;3.20;;;;;;;18.39;49.70;100640.38;5067206;28;20499;-60
2022/11/15 03:52:49;;;;;;;3.88;3.35;;;;;;;18.40;49.51;100645.59;5067119;28;20033;-59
2022/11/15 03:55:18;;;;;;;3.80;3.40;;;;;;;18.40;49.51;100640.22;5067051;28;20033;-60
2022/11/15 03:57:43;;;;;;;2.80;2.53;;;;;;;18.28;49.64;100621.91;5085198;28;20032;-60
2022/11/15 04:00:09;;;;;;;4.03;2.97;;;;;;;18.31;49.64;100627.81;5084669;28;20115;-60
2022/11/15 04:02:34;;;;;;;3.70;2.80;;;;;;;18.36;49.54;100638.88;5084822;28;20035;-59
2022/11/15 04:05:00;;;;;;;3.55;3.05;;;;;;;18.39;49.80;100645.75;5084578;28;20027;-60
2022/11/15 04:07:25;;;;;;;3.33;2.88;;;;;;;18.29;49.51;100632.50;5084560;28;20119;-60
2022/11/15 04:10:03;;;;;;;3.53;2.92;;;;;;;18.39;49.86;100652.00;5084910;28;20088;-60
2022/11/15 04:12:32;;;;;;;3.20;2.90;;;;;;;18.38;49.76;100644.09;5084940;28;20049;-60
2022/11/15 04:15:07;;;;;;;3.10;2.70;;;;;;;18.32;49.50;100640.25;5066346;28;20017;-60
2022/11/15 04:17:53;;;;;;;3.40;3.03;;;;;;;18.37;49.49;100651.31;5084198;28;20017;-60
2022/11/15 04:26:01;;;;;;;3.03;2.72;;;;;;;18.36;49.79;100656.88;5084500;28;20055;-59
2022/11/15 04:28:26;;;;;;;3.08;2.78;;;;;;;18.31;49.44;100643.09;5065675;28;20027;-59
2022/11/15 04:30:52;;;;;;;3.50;3.15;;;;;;;18.36;49.80;100655.03;5084594;28;20107;-60
2022/11/15 04:33:17;;;;;;;3.30;3.00;;;;;;;18.34;49.48;100648.97;5083593;28;20066;-59
2022/11/15 04:35:43;;;;;;;3.70;3.38;;;;;;;18.35;49.68;100660.56;5083807;28;20122;-59
2022/11/15 04:38:10;;;;;;;3.28;2.97;;;;;;;18.34;49.37;100662.44;5083760;28;20111;-59
2022/11/15 04:40:36;;;;;;;3.72;3.08;;;;;;;18.33;49.77;100652.69;5084385;28;20024;-59
2022/11/15 04:43:02;;;;;;;4.03;3.47;;;;;;;18.33;49.49;100660.75;5084067;28;20020;-59
2022/11/15 04:45:27;;;;;;;4.32;3.30;;;;;;;18.33;49.46;100651.84;5083801;28;20051;-57
2022/11/15 04:47:52;;;;;;;3.45;2.97;;;;;;;18.32;49.59;100648.31;5083877;28;20029;-59
2022/11/15 04:50:18;;;;;;;3.10;2.80;;;;;;;18.32;49.79;100640.25;5084242;28;20028;-59
2022/11/15 04:52:50;;;;;;;3.78;3.00;;;;;;;18.28;49.72;100638.06;5084121;28;20440;-59
2022/11/15 04:55:15;;;;;;;3.70;3.00;;;;;;;18.31;49.60;100652.03;5084080;28;20048;-59
2022/11/15 04:57:41;;;;;;;3.92;3.15;;;;;;;18.32;49.59;100647.47;5083552;28;20031;-59
2022/11/15 05:00:09;;;;;;;3.03;2.72;;;;;;;18.31;49.78;100648.47;5083452;28;20086;-58
2022/11/15 05:05:17;;;;;;;3.67;3.00;;;;;;;18.30;49.45;100634.16;5083371;28;20077;-58
2022/11/15 05:07:43;;;;;;;3.50;2.60;;;;;;;18.29;49.48;100635.19;5083315;28;20111;-59
2022/11/15 05:10:08;;;;;;;3.25;2.70;;;;;;;18.29;49.81;100624.44;5083775;28;20024;-59
2022/11/15 05:12:33;;;;;;;4.07;3.30;;;;;;;18.29;49.76;100627.13;5084001;28;20080;-59
2022/11/15 05:14:59;;;;;;;3.75;3.33;;;;;;;18.02;49.77;100595.22;5083041;28;20090;-60
2022/11/15 05:17:24;;;;;;;4.50;2.90;;;;;;;18.17;49.61;100621.25;5083265;28;20080;-59
2022/11/15 05:19:51;;;;;;;4.13;3.30;;;;;;;18.29;49.79;100639.75;5086172;28;20048;-60
2022/11/15 05:22:16;;;;;;;3.92;3.13;;;;;;;18.28;50.07;100636.22;5088351;28;20082;-60
2022/11/15 05:24:42;;;;;;;3.22;2.80;;;;;;;18.16;49.71;100613.34;5083010;28;20020;-60
2022/11/15 05:27:07;;;;;;;3.58;2.72;;;;;;;18.28;49.59;100633.53;5065050;28;20025;-59
2022/11/15 05:29:32;;;;;;;3.97;2.88;;;;;;;18.28;49.59;100632.69;5082600;28;20020;-59
2022/11/15 05:31:57;;;;;;;3.00;2.70;;;;;;;18.26;49.83;100626.63;5082837;28;20039;-59
2022/11/15 05:34:25;;;;;;;6.15;3.30;;;;;;;18.28;49.81;100641.59;5082645;28;20108;-60
2022/11/15 05:36:50;;;;;;;4.15;3.10;;;;;;;18.27;49.83;100637.22;5082873;28;20025;-56
2022/11/15 05:39:16;;;;;;;4.47;2.90;;;;;;;18.28;49.97;100641.59;5082819;28;20024;-59
2022/11/15 05:41:50;;;;;;;3.30;2.88;;;;;;;18.28;50.01;100643.44;5083599;28;20025;-59
2022/11/15 05:44:18;;;;;;;3.00;2.47;;;;;;;18.28;49.60;100633.53;5064761;28;20021;-59
2022/11/15 05:46:43;;;;;;;4.38;3.05;;;;;;;18.28;50.04;100646.97;5083391;28;20021;-60
2022/11/15 05:49:12;;;;;;;3.20;2.85;;;;;;;18.28;50.06;100632.69;5064652;28;20114;-59
2022/11/15 05:51:38;;;;;;;4.75;2.95;;;;;;;18.26;50.04;100632.00;5064461;28;20031;-59
2022/11/15 05:54:03;;;;;;;4.65;3.45;;;;;;;18.28;49.90;100646.13;5064509;28;20025;-59
2022/11/15 05:56:29;;;;;;;4.13;2.85;;;;;;;18.26;50.31;100638.22;5083094;28;20102;-59
2022/11/15 05:58:55;;;;;;;3.78;2.80;;;;;;;18.28;50.04;100643.44;5063805;28;20080;-59
2022/11/15 06:01:20;;;;;;;3.13;2.83;;;;;;;18.14;50.10;100615.38;5064601;28;20024;-60
2022/11/15 06:03:45;;;;;;;3.10;2.80;;;;;;;18.27;50.32;100634.53;5064294;28;20027;-59
2022/11/15 06:06:11;;;;;;;2.70;2.42;;;;;;;18.26;50.38;100637.38;5081682;28;20029;-60
2022/11/15 06:08:36;;;;;;;3.17;2.72;;;;;;;18.28;50.24;100651.53;5079508;28;20033;-60
2022/11/15 06:11:05;;;;;;;3.22;2.80;;;;;;;18.26;50.22;100650.84;5082686;28;20074;-60
2022/11/15 06:13:31;;;;;;;4.07;3.00;;;;;;;18.17;50.63;100634.69;5084369;28;20020;-60
2022/11/15 06:15:57;;;;;;;3.67;2.70;;;;;;;18.28;50.16;100660.44;5064480;28;20016;-60
2022/11/15 06:18:22;;;;;;;3.97;2.78;;;;;;;18.28;50.46;100655.03;5081877;28;20038;-60
2022/11/15 06:20:47;;;;;;;2.88;2.58;;;;;;;18.29;50.43;100655.88;5081880;28;20040;-59
2022/11/15 06:23:13;;;;;;;4.60;3.45;;;;;;;18.29;50.73;100658.56;5082379;28;20029;-60
2022/11/15 06:25:38;;;;;;;3.30;2.38;;;;;;;18.28;50.59;100652.34;5082680;28;20365;-60
2022/11/15 06:28:04;;;;;;;3.42;2.60;;;;;;;18.28;50.60;100660.44;5081911;28;20036;-59
2022/11/15 06:30:29;;;;;;;2.95;2.65;;;;;;;18.29;50.64;100662.09;5081717;28;20242;-60
2022/11/15 06:33:04;;;;;;;3.40;2.67;;;;;;;18.28;50.42;100663.13;5082257;28;20028;-60
2022/11/15 06:35:32;;;;;;;3.20;2.65;;;;;;;18.29;50.84;100666.66;5082509;28;20021;-61
2022/11/15 06:38:03;;;;;;;3.45;2.95;;;;;;;18.18;50.49;100649.00;5082467;28;20028;-61
2022/11/15 06:40:28;;;;;;;3.60;2.95;;;;;;;18.29;50.79;100672.03;5082121;28;20021;-60
2022/11/15 06:42:59;;;;;;;4.20;2.63;;;;;;;18.28;50.56;100676.56;5082241;28;20108;-60
2022/11/15 06:45:24;;;;;;;4.97;2.92;;;;;;;18.29;50.86;100677.41;5081690;28;20051;-60
2022/11/15 06:47:49;;;;;;;6.15;3.25;;;;;;;18.28;51.03;100673.88;5082073;28;20143;-60
2022/11/15 06:50:14;;;;;;;3.80;2.80;;;;;;;18.31;50.63;100680.75;5081844;28;20035;-61
2022/11/15 06:52:40;;;;;;;3.53;2.60;;;;;;;18.25;50.80;100668.84;5082232;28;20032;-61
2022/11/15 06:55:06;;;;;;;4.43;2.60;;;;;;;18.29;50.78;100682.78;5082135;28;20036;-60
2022/11/15 06:57:32;;;;;;;3.50;2.58;;;;;;;18.28;50.73;100673.88;5085287;28;20056;-60
2022/11/15 06:59:57;;;;;;;4.43;2.72;;;;;;;18.29;50.96;100680.94;5085077;28;20487;-60
2022/11/15 07:02:22;;;;;;;4.40;2.88;;;;;;;18.29;51.13;100678.25;5085375;28;20110;-60
2022/11/15 07:04:47;;;;;;;3.42;2.50;;;;;;;18.10;51.12;100649.03;5085196;28;20029;-60
2022/11/15 07:07:13;;;;;;;2.80;2.40;;;;;;;18.29;50.64;100682.78;5067305;28;20028;-60
2022/11/15 07:09:38;;;;;;;3.40;2.60;;;;;;;18.31;51.01;100689.69;5085264;28;20125;-60
2022/11/15 07:12:03;;;;;;;3.55;2.70;;;;;;;18.31;50.83;100695.09;5067906;28;20031;-60
2022/11/15 07:14:29;;;;;;;3.90;2.80;;;;;;;18.31;50.98;100688.84;5084912;28;20025;-59
2022/11/15 07:16:54;;;;;;;3.15;2.47;;;;;;;18.30;51.12;100696.06;5085141;28;20024;-59
2022/11/15 07:19:19;;;;;;;3.45;2.78;;;;;;;18.23;51.03;100692.41;5084830;28;20388;-60
2022/11/15 07:21:44;;;;;;;3.80;3.10;;;;;;;18.31;51.12;100702.28;5085371;28;20059;-60
2022/11/15 07:24:10;;;;;;;4.53;2.45;;;;;;;18.32;51.14;100707.53;5066923;28;20062;-60
2022/11/15 07:26:35;;;;;;;3.55;2.60;;;;;;;18.32;50.90;100710.22;5085511;28;20082;-61
2022/11/15 07:29:00;;;;;;;3.30;2.53;;;;;;;18.30;51.16;100701.47;5084242;28;20033;-60
2022/11/15 07:31:25;;;;;;;4.47;2.90;;;;;;;18.32;51.07;100698.63;5085309;28;20024;-61
2022/11/15 07:33:51;;;;;;;2.85;2.42;;;;;;;18.32;51.17;100696.75;5066991;28;20496;-60
2022/11/15 07:36:16;;;;;;;3.25;2.50;;;;;;;18.33;50.80;100702.97;5082467;28;20055;-60
2022/11/15 07:38:42;;;;;;;3.97;2.75;;;;;;;18.34;50.88;100697.41;5084776;28;20028;-60
2022/11/15 07:41:07;;;;;;;3.03;2.40;;;;;;;18.23;50.96;100693.25;5085105;28;20044;-60
2022/11/15 07:43:33;;;;;;;3.72;3.20;;;;;;;18.33;51.13;100697.59;5084285;28;20017;-60
2022/11/15 07:46:04;;;;;;;2.78;2.30;;;;;;;18.36;51.27;100697.25;5085120;28;20031;-61
2022/11/15 07:48:30;;;;;;;3.47;2.63;;;;;;;18.35;51.01;100699.13;5084339;28;20021;-61
2022/11/15 07:50:55;;;;;;;3.38;2.65;;;;;;;18.37;51.06;100693.56;5084439;28;20078;-61
2022/11/15 07:53:20;;;;;;;4.20;2.70;;;;;;;18.38;50.80;100692.53;5084915;28;20033;-61
2022/11/15 07:55:46;;;;;;;2.85;2.35;;;;;;;18.40;50.78;100701.31;5084967;28;20743;-60
2022/11/15 07:58:12;;;;;;;3.78;3.08;;;;;;;18.39;51.21;100705.84;5081861;28;20029;-60
2022/11/15 08:00:37;;;;;;;3.80;2.92;;;;;;;18.39;50.92;100691.53;5083854;28;20021;-60
2022/11/15 08:03:04;;;;;;;6.22;2.63;;;;;;;18.35;51.21;100691.03;5084890;28;20032;-61
2022/11/15 08:05:30;;;;;;;5.53;2.80;;;;;;;18.36;51.12;100689.19;5084830;28;20012;-61
2022/11/15 08:07:56;;;;;;;3.50;2.67;;;;;;;18.38;51.27;100701.44;5083893;28;20028;-60
2022/11/15 08:10:21;;;;;;;4.35;2.42;;;;;;;18.40;51.42;100706.69;5084408;28;20024;-60
2022/11/15 08:12:46;;;;;;;5.80;3.03;;;;;;;18.41;51.23;100714.56;5084802;28;20496;-57
2022/11/15 08:15:11;;;;;;;4.57;2.80;;;;;;;18.43;51.21;100711.69;5075202;28;20032;-59
2022/11/15 08:17:37;;;;;;;8.20;3.03;;;;;;;18.40;51.54;100702.13;5081364;28;20048;-58
2022/11/15 08:20:03;;;;;;;4.30;2.38;;;;;;;18.41;51.30;100692.22;5083778;28;20060;-58
2022/11/15 08:22:28;;;;;;;5.60;2.83;;;;;;;18.44;51.67;100700.78;5083998;28;20107;-59
2022/11/15 08:24:53;;;;;;;5.05;2.85;;;;;;;18.45;51.47;100693.53;5083991;28;20024;-56
2022/11/15 08:27:19;;;;;;;7.10;2.88;;;;;;;18.47;51.70;100700.41;5083145;28;20037;-55
2022/11/15 08:29:44;;;;;;;3.67;2.53;;;;;;;18.48;51.63;100704.81;5082896;28;20115;-58
2022/11/15 08:32:11;;;;;;;4.28;2.50;;;;;;;18.46;51.33;100692.53;5083867;28;20020;-59
2022/11/15 08:34:37;;;;;;;6.47;2.90;;;;;;;18.52;51.47;100699.94;5083454;28;20020;-59
2022/11/15 08:37:02;;;;;;;8.35;4.10;;;;;;;18.54;51.65;100702.44;5083423;28;20092;-60
2022/11/15 08:39:27;;;;;;;5.95;2.80;;;;;;;18.55;51.74;100701.44;5083390;28;20025;-60
2022/11/15 08:41:53;;;;;;;3.38;2.67;;;;;;;18.56;51.74;100697.72;5083732;28;20040;-60
2022/11/15 08:44:18;;;;;;;7.13;3.38;;;;;;;18.57;51.48;100696.72;5064772;28;20020;-58
2022/11/15 08:46:45;;;;;;;4.93;3.28;;;;;;;18.59;51.58;100692.00;5083358;28;20028;-54
2022/11/15 08:49:11;;;;;;;4.13;3.17;;;;;;;18.48;51.58;100671.69;5083076;28;20035;-54
2022/11/15 08:51:36;;;;;;;4.95;2.95;;;;;;;18.60;51.74;100681.03;5083445;28;20033;-55
2022/11/15 08:54:01;;;;;;;3.13;2.60;;;;;;;18.62;52.00;100681.72;5082906;28;20028;-61
2022/11/15 08:56:27;;;;;;;5.07;2.63;;;;;;;18.66;51.77;100682.22;5083497;28;20024;-58
2022/11/15 08:58:52;;;;;;;4.30;2.97;;;;;;;18.69;51.55;100669.31;5070293;28;20108;-58
2022/11/15 09:01:19;;;;;;;4.85;2.78;;;;;;;18.72;51.81;100670.78;5064954;28;20075;-58
2022/11/15 09:03:44;;;;;;;3.97;2.40;;;;;;;18.74;51.45;100674.16;5077679;28;20059;-60
2022/11/15 09:06:10;;;;;;;3.17;2.63;;;;;;;18.77;51.77;100676.50;5083076;28;20092;-57
2022/11/15 09:08:35;;;;;;;3.60;2.88;;;;;;;18.79;51.71;100674.47;5082966;28;20017;-60
2022/11/15 09:11:08;;;;;;;4.40;2.40;;;;;;;18.80;51.37;100669.94;5083281;28;20020;-56
2022/11/15 09:13:34;;;;;;;4.28;2.70;;;;;;;18.81;51.69;100664.34;5082441;28;20036;-52
2022/11/15 09:16:00;;;;;;;2.92;2.33;;;;;;;18.81;51.73;100672.44;5082584;28;20024;-57
2022/11/15 09:18:27;;;;;;;3.65;2.25;;;;;;;18.82;51.80;100671.44;5082379;28;20066;-60
2022/11/15 09:20:56;;;;;;;2.20;2.00;;;;;;;18.80;51.65;100662.69;5082799;28;20109;-55
2022/11/15 09:23:21;;;;;;;3.58;2.47;;;;;;;18.86;51.48;100680.84;5082498;28;20025;-58
2022/11/15 09:25:47;;;;;;;2.97;2.30;;;;;;;18.86;51.40;100670.09;5082802;28;20039;-58
2022/11/15 09:28:12;;;;;;;3.53;2.40;;;;;;;18.88;51.52;100672.59;5082618;28;20461;-53
2022/11/15 09:30:38;;;;;;;3.85;2.72;;;;;;;18.91;51.41;100672.25;5082053;28;20036;-57
2022/11/15 09:33:10;;;;;;;2.80;2.35;;;;;;;18.88;51.53;100670.72;5069684;28;20021;-55
2022/11/15 09:35:35;;;;;;;4.78;2.63;;;;;;;18.90;51.22;100666.03;5063578;28;20025;-54
2022/11/15 09:38:01;;;;;;;3.10;2.50;;;;;;;18.91;51.33;100667.69;5082477;28;20161;-55
2022/11/15 09:40:26;;;;;;;3.55;2.25;;;;;;;18.94;51.30;100674.56;5082731;28;20024;-54
2022/11/15 09:43:13;;;;;;;3.22;2.30;;;;;;;18.96;51.33;100672.56;5082644;28;20028;-57
2022/11/15 09:46:30;;;;;;;4.10;2.20;;;;;;;19.01;51.44;100663.94;5081495;28;20036;-57
2022/11/15 09:48:57;;;;;;;4.05;2.30;;;;;;;19.02;51.47;100655.69;5050951;28;20039;-58
2022/11/15 09:51:29;;;;;;;3.20;2.20;;;;;;;19.09;50.91;100661.22;5064246;28;20021;-53
2022/11/15 09:54:19;;;;;;;4.07;2.25;;;;;;;19.13;51.14;100659.84;5064005;28;20060;-58
2022/11/15 09:56:44;;;;;;;4.32;2.15;;;;;;;19.15;50.73;100661.34;5082595;28;20086;-58
2022/11/15 09:59:23;;;;;;;3.90;2.47;;;;;;;19.18;50.84;100662.84;5081205;28;20028;-58
2022/11/15 10:02:07;;;;;;;3.42;2.42;;;;;;;19.24;51.03;100656.75;5064207;28;20028;-54
2022/11/15 10:04:32;;;;;;;2.67;2.17;;;;;;;19.28;50.59;100646.47;5082394;28;20024;-54
2022/11/15 10:07:06;;;;;;;3.95;2.28;;;;;;;19.35;50.71;100659.06;5064151;28;20025;-55
2022/11/15 10:10:13;;;;;;;2.50;2.22;;;;;;;19.38;50.69;100645.22;5063871;28;20036;-57
2022/11/15 10:12:39;;;;;;;5.70;2.60;;;;;;;19.40;50.64;100642.34;5071089;28;20661;-60
2022/11/15 10:15:11;;;;;;;2.80;1.67;;;;;;;19.42;50.71;100643.03;5071920;28;20032;-58
2022/11/15 10:18:03;;;;;;;4.20;2.03;;;;;;;19.10;50.77;100584.75;5066252;28;20489;-54
2022/11/15 10:20:30;;;;;;;3.70;2.05;;;;;;;19.20;50.39;100593.47;5071708;28;20045;-58
2022/11/15 10:22:59;;;;;;;4.63;2.03;;;;;;;19.43;50.62;100629.34;5064116;28;20036;-57
2022/11/15 10:25:29;;;;;;;3.08;1.90;;;;;;;19.40;50.66;100618.91;5064695;28;20040;-58
2022/11/15 10:28:09;;;;;;;2.25;2.03;;;;;;;19.43;50.45;100615.03;5064477;28;20028;-59
2022/11/15 10:30:40;;;;;;;2.85;1.85;;;;;;;19.49;50.27;100615.13;5064139;28;20025;-57
2022/11/15 10:33:23;;;;;;;2.17;1.90;;;;;;;19.52;50.40;100624.75;5086418;28;20035;-56
2022/11/15 10:35:48;;;;;;;3.20;1.85;;;;;;;19.54;50.32;100627.25;5086198;28;20109;-55
2022/11/15 10:38:13;;;;;;;3.85;2.50;;;;;;;19.54;50.55;100621.84;5086409;28;20032;-53
2022/11/15 10:40:40;;;;;;;2.63;1.90;;;;;;;19.51;50.57;100624.94;5085837;28;20027;-53
2022/11/15 10:43:08;;;;;;;2.38;1.83;;;;;;;19.51;50.45;100622.22;5085793;28;20028;-59
2022/11/15 10:45:34;;;;;;;3.22;2.10;;;;;;;19.51;50.34;100619.53;5085651;28;20027;-57
2022/11/15 10:48:11;;;;;;;2.70;1.88;;;;;;;19.50;50.26;100621.41;5085961;28;20048;-58
2022/11/15 10:50:37;;;;;;;3.72;2.50;;;;;;;19.52;50.47;100618.50;5085834;28;20020;-56
2022/11/15 10:53:03;;;;;;;2.97;2.15;;;;;;;19.49;50.55;100611.59;5068318;28;20028;-58
2022/11/15 10:55:30;;;;;;;2.28;1.63;;;;;;;19.55;50.13;100618.16;5067838;28;20031;-58
2022/11/15 10:58:26;;;;;;;2.30;1.80;;;;;;;19.56;50.32;100611.75;5085803;28;20031;-57
2022/11/15 11:00:52;;;;;;;2.85;1.73;;;;;;;19.53;50.20;100602.13;5067989;28;20031;-57
2022/11/15 11:03:29;;;;;;;5.97;1.80;;;;;;;19.57;50.34;100608.84;5068352;28;20028;-57
2022/11/15 11:06:16;;;;;;;4.03;1.85;;;;;;;19.56;50.17;100592.88;5085635;28;20017;-57
2022/11/15 11:08:54;;;;;;;2.15;1.77;;;;;;;19.55;50.10;100583.09;5085652;28;20044;-58
2022/11/15 11:11:19;;;;;;;2.90;1.70;;;;;;;19.45;50.51;100575.22;5085900;28;20036;-57
2022/11/15 11:13:44;;;;;;;3.20;2.13;;;;;;;19.55;50.26;100585.81;5085110;28;20127;-57
2022/11/15 11:16:13;;;;;;;5.68;1.88;;;;;;;19.54;50.60;100589.50;5085490;28;20040;-57
2022/11/15 11:18:56;;;;;;;2.65;1.92;;;;;;;19.53;50.54;100577.03;5085641;28;20028;-56
2022/11/15 11:21:30;;;;;;;2.28;1.67;;;;;;;19.53;50.39;100571.66;5067761;28;20071;-58
2022/11/15 11:24:16;;;;;;;3.38;1.98;;;;;;;19.54;50.63;100560.69;5067213;28;20025;-58
2022/11/15 11:26:57;;;;;;;6.05;2.17;;;;;;;19.54;50.60;100549.91;5067123;28;20024;-58
2022/11/15 11:29:42;;;;;;;2.47;2.00;;;;;;;19.58;50.71;100566.53;5084548;28;20017;-57
2022/11/15 11:32:32;;;;;;;2.50;1.85;;;;;;;19.59;50.56;100560.16;5061267;28;20021;-56
2022/11/15 11:35:12;;;;;;;1.95;1.45;;;;;;;19.61;50.44;100555.44;5084217;28;20347;-57
2022/11/15 11:37:58;;;;;;;3.15;1.58;;;;;;;19.62;50.52;100555.22;5066612;28;20081;-57
2022/11/15 11:41:05;;;;;;;3.40;1.70;;;;;;;19.63;50.85;100558.81;5082147;28;20031;-57
2022/11/15 11:43:40;;;;;;;3.05;1.83;;;;;;;19.64;50.45;100555.91;5013517;28;20052;-58